sensor_id;sensor_type;location;lat;lon;timestamp;temperature;humidity
68924;DHT22;55961;52.156;20.942;2022-08-03T00:00:05;20.70;67.70
68924;DHT22;55961;52.156;20.942;2022-08-03T00:02:51;20.70;68.00
68924;DHT22;55961;52.156;20.942;2022-08-03T00:05:18;20.60;68.10
68924;DHT22;55961;52.156;20.942;2022-08-03T00:07:43;20.60;68.10
68924;DHT22;55961;52.156;20.942;2022-08-03T00:10:09;20.60;68.10
68924;DHT22;55961;52.156;20.942;2022-08-03T00:12:35;20.60;68.60
68924;DHT22;55961;52.156;20.942;2022-08-03T00:15:01;20.50;68.60
68924;DHT22;55961;52.156;20.942;2022-08-03T00:17:27;20.50;68.80
68924;DHT22;55961;52.156;20.942;2022-08-03T00:19:53;20.50;69.00
68924;DHT22;55961;52.156;20.942;2022-08-03T00:22:19;20.40;69.30
68924;DHT22;55961;52.156;20.942;2022-08-03T00:24:45;20.40;69.30
68924;DHT22;55961;52.156;20.942;2022-08-03T00:27:11;20.40;69.30
68924;DHT22;55961;52.156;20.942;2022-08-03T00:29:36;20.30;69.20
68924;DHT22;55961;52.156;20.942;2022-08-03T00:32:02;20.30;69.10
68924;DHT22;55961;52.156;20.942;2022-08-03T00:34:28;20.30;69.20
68924;DHT22;55961;52.156;20.942;2022-08-03T00:36:55;20.30;69.50
68924;DHT22;55961;52.156;20.942;2022-08-03T00:39:21;20.30;69.70
68924;DHT22;55961;52.156;20.942;2022-08-03T00:41:47;20.20;69.60
68924;DHT22;55961;52.156;20.942;2022-08-03T00:44:13;20.20;69.60
68924;DHT22;55961;52.156;20.942;2022-08-03T00:46:39;20.10;70.00
68924;DHT22;55961;52.156;20.942;2022-08-03T00:49:05;20.10;69.70
68924;DHT22;55961;52.156;20.942;2022-08-03T00:51:30;20.10;69.60
68924;DHT22;55961;52.156;20.942;2022-08-03T00:53:57;20.10;69.70
68924;DHT22;55961;52.156;20.942;2022-08-03T00:56:24;20.10;69.80
68924;DHT22;55961;52.156;20.942;2022-08-03T00:58:51;20.10;69.90
68924;DHT22;55961;52.156;20.942;2022-08-03T01:01:21;20.00;69.90
68924;DHT22;55961;52.156;20.942;2022-08-03T01:03:47;20.00;70.00
68924;DHT22;55961;52.156;20.942;2022-08-03T01:07:02;20.00;70.20
68924;DHT22;55961;52.156;20.942;2022-08-03T01:09:25;20.00;70.60
68924;DHT22;55961;52.156;20.942;2022-08-03T01:12:02;19.90;70.40
68924;DHT22;55961;52.156;20.942;2022-08-03T01:14:43;19.90;70.30
68924;DHT22;55961;52.156;20.942;2022-08-03T01:20:10;19.90;70.20
68924;DHT22;55961;52.156;20.942;2022-08-03T01:31:09;19.80;70.20
68924;DHT22;55961;52.156;20.942;2022-08-03T01:33:46;19.70;70.10
68924;DHT22;55961;52.156;20.942;2022-08-03T01:36:24;19.70;70.20
68924;DHT22;55961;52.156;20.942;2022-08-03T01:38:54;19.70;70.30
68924;DHT22;55961;52.156;20.942;2022-08-03T01:41:24;19.60;70.20
68924;DHT22;55961;52.156;20.942;2022-08-03T01:43:57;19.60;70.20
68924;DHT22;55961;52.156;20.942;2022-08-03T01:46:25;19.60;70.10
68924;DHT22;55961;52.156;20.942;2022-08-03T01:48:51;19.50;70.20
68924;DHT22;55961;52.156;20.942;2022-08-03T01:51:18;19.50;70.20
68924;DHT22;55961;52.156;20.942;2022-08-03T01:53:47;19.50;70.20
68924;DHT22;55961;52.156;20.942;2022-08-03T01:56:15;19.40;70.40
68924;DHT22;55961;52.156;20.942;2022-08-03T01:58:42;19.40;70.40
68924;DHT22;55961;52.156;20.942;2022-08-03T02:01:10;19.40;70.40
68924;DHT22;55961;52.156;20.942;2022-08-03T02:03:39;19.40;70.40
68924;DHT22;55961;52.156;20.942;2022-08-03T02:06:09;19.30;70.70
68924;DHT22;55961;52.156;20.942;2022-08-03T02:08:40;19.30;70.60
68924;DHT22;55961;52.156;20.942;2022-08-03T02:11:07;19.20;71.00
68924;DHT22;55961;52.156;20.942;2022-08-03T02:13:34;19.20;71.20
68924;DHT22;55961;52.156;20.942;2022-08-03T02:16:02;19.20;71.30
68924;DHT22;55961;52.156;20.942;2022-08-03T02:18:30;19.10;71.50
68924;DHT22;55961;52.156;20.942;2022-08-03T02:21:01;19.10;71.80
68924;DHT22;55961;52.156;20.942;2022-08-03T02:23:29;19.10;71.70
68924;DHT22;55961;52.156;20.942;2022-08-03T02:26:02;19.10;71.70
68924;DHT22;55961;52.156;20.942;2022-08-03T02:28:34;19.10;71.60
68924;DHT22;55961;52.156;20.942;2022-08-03T02:31:05;19.00;71.70
68924;DHT22;55961;52.156;20.942;2022-08-03T02:33:35;19.00;71.70
68924;DHT22;55961;52.156;20.942;2022-08-03T02:36:03;19.00;71.70
68924;DHT22;55961;52.156;20.942;2022-08-03T02:38:35;18.90;71.80
68924;DHT22;55961;52.156;20.942;2022-08-03T02:41:06;18.90;71.80
68924;DHT22;55961;52.156;20.942;2022-08-03T02:43:34;18.90;71.80
68924;DHT22;55961;52.156;20.942;2022-08-03T02:46:01;18.80;71.90
68924;DHT22;55961;52.156;20.942;2022-08-03T02:48:30;18.80;72.10
68924;DHT22;55961;52.156;20.942;2022-08-03T02:50:58;18.80;72.20
68924;DHT22;55961;52.156;20.942;2022-08-03T02:53:26;18.80;72.30
68924;DHT22;55961;52.156;20.942;2022-08-03T02:55:54;18.80;72.30
68924;DHT22;55961;52.156;20.942;2022-08-03T02:58:22;18.70;72.40
68924;DHT22;55961;52.156;20.942;2022-08-03T03:00:50;18.70;72.30
68924;DHT22;55961;52.156;20.942;2022-08-03T03:03:17;18.70;72.30
68924;DHT22;55961;52.156;20.942;2022-08-03T03:05:43;18.70;72.40
68924;DHT22;55961;52.156;20.942;2022-08-03T03:08:17;18.70;72.50
68924;DHT22;55961;52.156;20.942;2022-08-03T03:10:44;18.70;72.60
68924;DHT22;55961;52.156;20.942;2022-08-03T03:13:13;18.70;72.50
68924;DHT22;55961;52.156;20.942;2022-08-03T03:15:39;18.70;72.60
68924;DHT22;55961;52.156;20.942;2022-08-03T03:18:07;18.70;72.50
68924;DHT22;55961;52.156;20.942;2022-08-03T03:20:36;18.70;72.50
68924;DHT22;55961;52.156;20.942;2022-08-03T03:23:04;18.70;72.60
68924;DHT22;55961;52.156;20.942;2022-08-03T03:25:31;18.70;72.70
68924;DHT22;55961;52.156;20.942;2022-08-03T03:27:58;18.70;72.80
68924;DHT22;55961;52.156;20.942;2022-08-03T03:30:25;18.70;73.20
68924;DHT22;55961;52.156;20.942;2022-08-03T03:32:52;18.70;73.50
68924;DHT22;55961;52.156;20.942;2022-08-03T03:35:18;18.70;73.60
68924;DHT22;55961;52.156;20.942;2022-08-03T03:37:44;18.80;73.40
68924;DHT22;55961;52.156;20.942;2022-08-03T03:40:10;18.80;73.30
68924;DHT22;55961;52.156;20.942;2022-08-03T03:42:36;18.80;73.40
68924;DHT22;55961;52.156;20.942;2022-08-03T03:45:06;18.80;73.90
68924;DHT22;55961;52.156;20.942;2022-08-03T03:47:34;18.80;73.90
68924;DHT22;55961;52.156;20.942;2022-08-03T03:50:02;18.90;73.90
68924;DHT22;55961;52.156;20.942;2022-08-03T03:52:28;18.90;73.80
68924;DHT22;55961;52.156;20.942;2022-08-03T03:54:54;19.00;73.80
68924;DHT22;55961;52.156;20.942;2022-08-03T03:57:19;19.00;73.70
68924;DHT22;55961;52.156;20.942;2022-08-03T03:59:45;19.00;73.90
68924;DHT22;55961;52.156;20.942;2022-08-03T04:02:12;19.10;73.70
68924;DHT22;55961;52.156;20.942;2022-08-03T04:04:38;19.10;73.70
68924;DHT22;55961;52.156;20.942;2022-08-03T04:07:24;19.20;73.60
68924;DHT22;55961;52.156;20.942;2022-08-03T04:10:27;19.20;73.50
68924;DHT22;55961;52.156;20.942;2022-08-03T04:13:15;19.30;73.60
68924;DHT22;55961;52.156;20.942;2022-08-03T04:15:44;19.30;73.50
68924;DHT22;55961;52.156;20.942;2022-08-03T04:18:13;19.30;73.70
68924;DHT22;55961;52.156;20.942;2022-08-03T04:20:44;19.40;73.90
68924;DHT22;55961;52.156;20.942;2022-08-03T04:23:12;19.40;74.20
68924;DHT22;55961;52.156;20.942;2022-08-03T04:25:39;19.50;74.10
68924;DHT22;55961;52.156;20.942;2022-08-03T04:28:07;19.50;73.70
68924;DHT22;55961;52.156;20.942;2022-08-03T04:30:35;19.50;73.70
68924;DHT22;55961;52.156;20.942;2022-08-03T04:33:02;19.50;73.50
68924;DHT22;55961;52.156;20.942;2022-08-03T04:35:30;19.60;73.50
68924;DHT22;55961;52.156;20.942;2022-08-03T04:38:01;19.60;73.60
68924;DHT22;55961;52.156;20.942;2022-08-03T04:40:33;19.60;73.40
68924;DHT22;55961;52.156;20.942;2022-08-03T04:43:01;19.60;73.40
68924;DHT22;55961;52.156;20.942;2022-08-03T04:45:32;19.70;73.50
68924;DHT22;55961;52.156;20.942;2022-08-03T04:47:59;19.70;73.70
68924;DHT22;55961;52.156;20.942;2022-08-03T04:50:25;19.70;73.70
68924;DHT22;55961;52.156;20.942;2022-08-03T04:52:53;19.80;74.00
68924;DHT22;55961;52.156;20.942;2022-08-03T04:55:29;19.80;74.00
68924;DHT22;55961;52.156;20.942;2022-08-03T04:57:56;19.90;73.80
68924;DHT22;55961;52.156;20.942;2022-08-03T05:00:23;19.90;73.90
68924;DHT22;55961;52.156;20.942;2022-08-03T05:02:48;20.00;73.70
68924;DHT22;55961;52.156;20.942;2022-08-03T05:05:15;20.00;73.50
68924;DHT22;55961;52.156;20.942;2022-08-03T05:07:42;20.10;73.40
68924;DHT22;55961;52.156;20.942;2022-08-03T05:10:10;20.10;73.10
68924;DHT22;55961;52.156;20.942;2022-08-03T05:12:37;20.20;72.80
68924;DHT22;55961;52.156;20.942;2022-08-03T05:15:04;20.20;72.80
68924;DHT22;55961;52.156;20.942;2022-08-03T05:17:30;20.20;72.60
68924;DHT22;55961;52.156;20.942;2022-08-03T05:19:56;20.20;72.50
68924;DHT22;55961;52.156;20.942;2022-08-03T05:22:22;20.30;72.50
68924;DHT22;55961;52.156;20.942;2022-08-03T05:24:48;20.30;72.40
68924;DHT22;55961;52.156;20.942;2022-08-03T05:27:14;20.40;72.30
68924;DHT22;55961;52.156;20.942;2022-08-03T05:29:47;20.40;72.30
68924;DHT22;55961;52.156;20.942;2022-08-03T05:32:14;20.40;72.30
68924;DHT22;55961;52.156;20.942;2022-08-03T05:34:40;20.50;72.00
68924;DHT22;55961;52.156;20.942;2022-08-03T05:37:07;20.50;72.00
68924;DHT22;55961;52.156;20.942;2022-08-03T05:39:33;20.60;72.00
68924;DHT22;55961;52.156;20.942;2022-08-03T05:41:59;20.60;72.00
68924;DHT22;55961;52.156;20.942;2022-08-03T05:44:25;20.70;71.80
68924;DHT22;55961;52.156;20.942;2022-08-03T05:46:51;20.70;71.90
68924;DHT22;55961;52.156;20.942;2022-08-03T05:49:18;20.80;71.60
68924;DHT22;55961;52.156;20.942;2022-08-03T05:51:45;20.90;70.70
68924;DHT22;55961;52.156;20.942;2022-08-03T05:54:11;20.90;70.90
68924;DHT22;55961;52.156;20.942;2022-08-03T05:56:37;21.00;70.60
68924;DHT22;55961;52.156;20.942;2022-08-03T05:59:05;21.10;70.30
68924;DHT22;55961;52.156;20.942;2022-08-03T06:01:31;21.20;70.50
68924;DHT22;55961;52.156;20.942;2022-08-03T06:03:57;21.20;70.40
68924;DHT22;55961;52.156;20.942;2022-08-03T06:06:23;21.20;70.30
68924;DHT22;55961;52.156;20.942;2022-08-03T06:08:49;21.30;70.10
68924;DHT22;55961;52.156;20.942;2022-08-03T06:11:15;21.30;69.90
68924;DHT22;55961;52.156;20.942;2022-08-03T06:13:42;21.40;69.90
68924;DHT22;55961;52.156;20.942;2022-08-03T06:16:08;21.40;69.40
68924;DHT22;55961;52.156;20.942;2022-08-03T06:18:35;21.50;68.90
68924;DHT22;55961;52.156;20.942;2022-08-03T06:21:02;21.50;69.10
68924;DHT22;55961;52.156;20.942;2022-08-03T06:23:28;21.60;68.50
68924;DHT22;55961;52.156;20.942;2022-08-03T06:25:54;21.60;68.20
68924;DHT22;55961;52.156;20.942;2022-08-03T06:28:20;21.70;68.10
68924;DHT22;55961;52.156;20.942;2022-08-03T06:30:45;21.90;67.90
68924;DHT22;55961;52.156;20.942;2022-08-03T06:33:11;22.00;68.10
68924;DHT22;55961;52.156;20.942;2022-08-03T06:35:37;22.10;67.60
68924;DHT22;55961;52.156;20.942;2022-08-03T06:38:03;22.20;67.70
68924;DHT22;55961;52.156;20.942;2022-08-03T06:40:29;22.40;67.00
68924;DHT22;55961;52.156;20.942;2022-08-03T06:43:00;22.50;66.20
68924;DHT22;55961;52.156;20.942;2022-08-03T06:45:27;22.60;65.70
68924;DHT22;55961;52.156;20.942;2022-08-03T06:48:04;22.70;65.80
68924;DHT22;55961;52.156;20.942;2022-08-03T06:50:32;22.80;65.90
68924;DHT22;55961;52.156;20.942;2022-08-03T06:52:59;23.00;65.70
68924;DHT22;55961;52.156;20.942;2022-08-03T06:55:25;23.10;65.30
68924;DHT22;55961;52.156;20.942;2022-08-03T06:57:51;23.20;64.10
68924;DHT22;55961;52.156;20.942;2022-08-03T07:00:17;23.30;64.10
68924;DHT22;55961;52.156;20.942;2022-08-03T07:02:43;23.40;63.50
68924;DHT22;55961;52.156;20.942;2022-08-03T07:05:10;23.50;63.10
68924;DHT22;55961;52.156;20.942;2022-08-03T07:07:36;23.60;63.50
68924;DHT22;55961;52.156;20.942;2022-08-03T07:10:04;23.70;63.00
68924;DHT22;55961;52.156;20.942;2022-08-03T07:12:31;23.90;61.70
68924;DHT22;55961;52.156;20.942;2022-08-03T07:14:59;24.00;61.20
68924;DHT22;55961;52.156;20.942;2022-08-03T07:17:25;24.00;61.00
68924;DHT22;55961;52.156;20.942;2022-08-03T07:19:51;24.10;60.90
68924;DHT22;55961;52.156;20.942;2022-08-03T07:22:17;24.30;61.00
68924;DHT22;55961;52.156;20.942;2022-08-03T07:24:43;24.40;60.90
68924;DHT22;55961;52.156;20.942;2022-08-03T07:27:09;24.60;61.00
68924;DHT22;55961;52.156;20.942;2022-08-03T07:29:36;24.70;59.50
68924;DHT22;55961;52.156;20.942;2022-08-03T07:32:05;24.90;58.60
68924;DHT22;55961;52.156;20.942;2022-08-03T07:34:31;25.00;59.10
68924;DHT22;55961;52.156;20.942;2022-08-03T07:36:57;25.20;57.10
68924;DHT22;55961;52.156;20.942;2022-08-03T07:39:23;25.30;57.50
68924;DHT22;55961;52.156;20.942;2022-08-03T07:41:49;25.40;57.00
68924;DHT22;55961;52.156;20.942;2022-08-03T07:44:19;25.60;57.10
68924;DHT22;55961;52.156;20.942;2022-08-03T07:46:45;25.80;57.70
68924;DHT22;55961;52.156;20.942;2022-08-03T07:49:11;26.00;56.90
68924;DHT22;55961;52.156;20.942;2022-08-03T07:51:41;26.20;55.20
68924;DHT22;55961;52.156;20.942;2022-08-03T07:54:10;26.30;55.20
68924;DHT22;55961;52.156;20.942;2022-08-03T07:56:39;26.50;54.80
68924;DHT22;55961;52.156;20.942;2022-08-03T07:59:12;26.60;54.50
68924;DHT22;55961;52.156;20.942;2022-08-03T08:01:39;26.70;54.80
68924;DHT22;55961;52.156;20.942;2022-08-03T08:04:05;26.90;54.50
68924;DHT22;55961;52.156;20.942;2022-08-03T08:06:31;27.10;54.00
68924;DHT22;55961;52.156;20.942;2022-08-03T08:08:59;27.30;52.80
68924;DHT22;55961;52.156;20.942;2022-08-03T08:11:31;27.50;52.80
68924;DHT22;55961;52.156;20.942;2022-08-03T08:14:03;27.80;51.30
68924;DHT22;55961;52.156;20.942;2022-08-03T08:16:30;28.00;51.10
68924;DHT22;55961;52.156;20.942;2022-08-03T08:18:55;28.20;50.80
68924;DHT22;55961;52.156;20.942;2022-08-03T08:21:23;28.40;50.00
68924;DHT22;55961;52.156;20.942;2022-08-03T08:23:49;28.50;49.40
68924;DHT22;55961;52.156;20.942;2022-08-03T08:26:15;28.70;48.50
68924;DHT22;55961;52.156;20.942;2022-08-03T08:28:41;28.80;48.00
68924;DHT22;55961;52.156;20.942;2022-08-03T08:31:06;28.90;47.30
68924;DHT22;55961;52.156;20.942;2022-08-03T08:33:33;28.90;47.40
68924;DHT22;55961;52.156;20.942;2022-08-03T08:36:03;29.00;48.30
68924;DHT22;55961;52.156;20.942;2022-08-03T08:38:29;29.00;47.00
68924;DHT22;55961;52.156;20.942;2022-08-03T08:40:55;29.00;46.50
68924;DHT22;55961;52.156;20.942;2022-08-03T08:43:21;28.90;46.20
68924;DHT22;55961;52.156;20.942;2022-08-03T08:45:50;28.80;46.40
68924;DHT22;55961;52.156;20.942;2022-08-03T08:48:23;28.70;46.90
68924;DHT22;55961;52.156;20.942;2022-08-03T08:50:54;28.70;47.00
68924;DHT22;55961;52.156;20.942;2022-08-03T08:53:20;28.60;47.80
68924;DHT22;55961;52.156;20.942;2022-08-03T08:55:47;28.70;48.20
68924;DHT22;55961;52.156;20.942;2022-08-03T08:58:15;28.70;47.80
68924;DHT22;55961;52.156;20.942;2022-08-03T09:00:43;28.80;47.60
68924;DHT22;55961;52.156;20.942;2022-08-03T09:03:11;28.90;48.00
68924;DHT22;55961;52.156;20.942;2022-08-03T09:05:38;29.00;47.90
68924;DHT22;55961;52.156;20.942;2022-08-03T09:08:10;29.20;47.30
68924;DHT22;55961;52.156;20.942;2022-08-03T09:10:38;29.40;46.50
68924;DHT22;55961;52.156;20.942;2022-08-03T09:13:04;29.60;46.00
68924;DHT22;55961;52.156;20.942;2022-08-03T09:15:32;29.70;46.30
68924;DHT22;55961;52.156;20.942;2022-08-03T09:18:00;29.80;45.00
68924;DHT22;55961;52.156;20.942;2022-08-03T09:20:32;30.00;45.00
68924;DHT22;55961;52.156;20.942;2022-08-03T09:25:35;30.30;44.00
68924;DHT22;55961;52.156;20.942;2022-08-03T09:28:09;30.40;43.40
68924;DHT22;55961;52.156;20.942;2022-08-03T09:30:37;30.50;43.20
68924;DHT22;55961;52.156;20.942;2022-08-03T09:33:07;30.60;43.10
68924;DHT22;55961;52.156;20.942;2022-08-03T09:35:38;30.70;42.00
68924;DHT22;55961;52.156;20.942;2022-08-03T09:40:40;30.70;42.70
68924;DHT22;55961;52.156;20.942;2022-08-03T09:43:08;30.70;42.00
68924;DHT22;55961;52.156;20.942;2022-08-03T09:45:35;30.70;43.00
68924;DHT22;55961;52.156;20.942;2022-08-03T09:48:24;30.80;42.60
68924;DHT22;55961;52.156;20.942;2022-08-03T09:50:56;30.90;42.90
68924;DHT22;55961;52.156;20.942;2022-08-03T09:53:22;30.90;43.30
68924;DHT22;55961;52.156;20.942;2022-08-03T09:55:59;31.10;42.50
68924;DHT22;55961;52.156;20.942;2022-08-03T09:58:28;31.20;42.10
68924;DHT22;55961;52.156;20.942;2022-08-03T10:03:21;31.40;41.60
68924;DHT22;55961;52.156;20.942;2022-08-03T10:05:47;31.60;41.00
68924;DHT22;55961;52.156;20.942;2022-08-03T10:08:15;31.70;41.50
68924;DHT22;55961;52.156;20.942;2022-08-03T10:10:47;31.90;40.50
68924;DHT22;55961;52.156;20.942;2022-08-03T10:13:16;32.00;40.20
68924;DHT22;55961;52.156;20.942;2022-08-03T10:15:42;32.10;40.10
68924;DHT22;55961;52.156;20.942;2022-08-03T10:18:08;32.20;40.20
68924;DHT22;55961;52.156;20.942;2022-08-03T10:20:40;32.30;40.30
68924;DHT22;55961;52.156;20.942;2022-08-03T10:23:08;32.30;39.20
68924;DHT22;55961;52.156;20.942;2022-08-03T10:25:37;32.30;38.40
68924;DHT22;55961;52.156;20.942;2022-08-03T10:28:05;32.30;38.70
68924;DHT22;55961;52.156;20.942;2022-08-03T10:30:32;32.30;39.30
68924;DHT22;55961;52.156;20.942;2022-08-03T10:33:07;32.40;39.10
68924;DHT22;55961;52.156;20.942;2022-08-03T10:35:35;32.50;37.90
68924;DHT22;55961;52.156;20.942;2022-08-03T10:38:17;32.40;38.60
68924;DHT22;55961;52.156;20.942;2022-08-03T10:40:44;32.60;38.30
68924;DHT22;55961;52.156;20.942;2022-08-03T10:43:41;32.70;38.00
68924;DHT22;55961;52.156;20.942;2022-08-03T10:46:10;32.80;38.10
68924;DHT22;55961;52.156;20.942;2022-08-03T10:48:37;32.90;37.50
68924;DHT22;55961;52.156;20.942;2022-08-03T10:51:03;33.00;37.20
68924;DHT22;55961;52.156;20.942;2022-08-03T10:53:39;33.00;37.30
68924;DHT22;55961;52.156;20.942;2022-08-03T10:59:18;33.10;37.30
68924;DHT22;55961;52.156;20.942;2022-08-03T11:01:53;33.30;37.20
68924;DHT22;55961;52.156;20.942;2022-08-03T11:04:20;33.40;37.40
68924;DHT22;55961;52.156;20.942;2022-08-03T11:06:46;33.50;37.10
68924;DHT22;55961;52.156;20.942;2022-08-03T11:09:15;33.50;37.10
68924;DHT22;55961;52.156;20.942;2022-08-03T11:11:42;33.60;37.30
68924;DHT22;55961;52.156;20.942;2022-08-03T11:16:41;33.60;36.40
68924;DHT22;55961;52.156;20.942;2022-08-03T11:19:15;33.50;37.00
68924;DHT22;55961;52.156;20.942;2022-08-03T11:30:04;33.80;37.30
68924;DHT22;55961;52.156;20.942;2022-08-03T11:46:03;34.40;36.60
68924;DHT22;55961;52.156;20.942;2022-08-03T11:51:02;34.70;35.30
68924;DHT22;55961;52.156;20.942;2022-08-03T11:53:28;34.70;36.00
68924;DHT22;55961;52.156;20.942;2022-08-03T11:55:58;34.70;35.50
68924;DHT22;55961;52.156;20.942;2022-08-03T11:58:24;34.70;34.80
68924;DHT22;55961;52.156;20.942;2022-08-03T12:00:51;34.50;35.20
68924;DHT22;55961;52.156;20.942;2022-08-03T12:03:20;34.50;36.00
68924;DHT22;55961;52.156;20.942;2022-08-03T12:05:51;34.50;36.10
68924;DHT22;55961;52.156;20.942;2022-08-03T12:08:31;34.50;36.20
68924;DHT22;55961;52.156;20.942;2022-08-03T12:11:00;34.50;35.80
68924;DHT22;55961;52.156;20.942;2022-08-03T12:13:45;34.50;36.10
68924;DHT22;55961;52.156;20.942;2022-08-03T12:16:19;34.50;35.80
68924;DHT22;55961;52.156;20.942;2022-08-03T12:18:55;34.50;36.70
68924;DHT22;55961;52.156;20.942;2022-08-03T12:21:22;34.50;36.20
68924;DHT22;55961;52.156;20.942;2022-08-03T12:23:49;34.50;35.20
68924;DHT22;55961;52.156;20.942;2022-08-03T12:26:16;34.40;35.40
68924;DHT22;55961;52.156;20.942;2022-08-03T12:28:49;34.30;35.80
68924;DHT22;55961;52.156;20.942;2022-08-03T12:31:15;34.40;36.80
68924;DHT22;55961;52.156;20.942;2022-08-03T12:34:00;34.50;35.80
68924;DHT22;55961;52.156;20.942;2022-08-03T12:36:29;34.60;36.20
68924;DHT22;55961;52.156;20.942;2022-08-03T12:38:57;34.70;35.80
68924;DHT22;55961;52.156;20.942;2022-08-03T12:41:31;34.80;35.40
68924;DHT22;55961;52.156;20.942;2022-08-03T12:43:58;34.80;35.70
68924;DHT22;55961;52.156;20.942;2022-08-03T12:46:33;34.90;35.60
68924;DHT22;55961;52.156;20.942;2022-08-03T12:51:36;34.90;36.10
68924;DHT22;55961;52.156;20.942;2022-08-03T12:54:03;35.00;35.90
68924;DHT22;55961;52.156;20.942;2022-08-03T12:56:29;34.90;35.70
68924;DHT22;55961;52.156;20.942;2022-08-03T12:58:55;35.00;35.00
68924;DHT22;55961;52.156;20.942;2022-08-03T13:01:22;34.90;35.20
68924;DHT22;55961;52.156;20.942;2022-08-03T13:03:50;34.90;35.90
68924;DHT22;55961;52.156;20.942;2022-08-03T13:06:19;34.80;35.60
68924;DHT22;55961;52.156;20.942;2022-08-03T13:08:45;34.70;35.90
68924;DHT22;55961;52.156;20.942;2022-08-03T13:11:25;34.70;35.70
68924;DHT22;55961;52.156;20.942;2022-08-03T13:13:53;34.60;35.80
68924;DHT22;55961;52.156;20.942;2022-08-03T13:16:20;34.60;36.20
68924;DHT22;55961;52.156;20.942;2022-08-03T13:18:47;34.50;35.90
68924;DHT22;55961;52.156;20.942;2022-08-03T13:21:18;34.40;36.20
68924;DHT22;55961;52.156;20.942;2022-08-03T13:23:45;34.40;36.70
68924;DHT22;55961;52.156;20.942;2022-08-03T13:26:11;34.30;36.60
68924;DHT22;55961;52.156;20.942;2022-08-03T13:28:38;34.30;36.60
68924;DHT22;55961;52.156;20.942;2022-08-03T13:31:05;34.20;37.10
68924;DHT22;55961;52.156;20.942;2022-08-03T13:33:31;34.20;36.60
68924;DHT22;55961;52.156;20.942;2022-08-03T13:35:57;34.10;36.30
68924;DHT22;55961;52.156;20.942;2022-08-03T13:38:23;34.00;36.80
68924;DHT22;55961;52.156;20.942;2022-08-03T13:40:59;34.00;36.70
68924;DHT22;55961;52.156;20.942;2022-08-03T13:43:38;34.00;36.60
68924;DHT22;55961;52.156;20.942;2022-08-03T13:46:09;34.00;36.70
68924;DHT22;55961;52.156;20.942;2022-08-03T13:48:43;33.90;37.10
68924;DHT22;55961;52.156;20.942;2022-08-03T13:51:09;33.90;37.10
68924;DHT22;55961;52.156;20.942;2022-08-03T13:53:34;33.90;37.10
68924;DHT22;55961;52.156;20.942;2022-08-03T13:56:00;34.00;36.90
68924;DHT22;55961;52.156;20.942;2022-08-03T13:58:26;33.90;36.40
68924;DHT22;55961;52.156;20.942;2022-08-03T14:00:52;33.90;36.40
68924;DHT22;55961;52.156;20.942;2022-08-03T14:03:18;33.90;36.90
68924;DHT22;55961;52.156;20.942;2022-08-03T14:05:44;33.90;36.70
68924;DHT22;55961;52.156;20.942;2022-08-03T14:08:10;33.90;36.90
68924;DHT22;55961;52.156;20.942;2022-08-03T14:10:39;34.00;37.00
68924;DHT22;55961;52.156;20.942;2022-08-03T14:13:05;34.00;36.40
68924;DHT22;55961;52.156;20.942;2022-08-03T14:15:31;34.00;36.60
68924;DHT22;55961;52.156;20.942;2022-08-03T14:17:57;34.10;36.40
68924;DHT22;55961;52.156;20.942;2022-08-03T14:20:23;34.00;36.20
68924;DHT22;55961;52.156;20.942;2022-08-03T14:22:49;34.00;36.20
68924;DHT22;55961;52.156;20.942;2022-08-03T14:25:15;33.90;36.10
68924;DHT22;55961;52.156;20.942;2022-08-03T14:27:41;33.90;36.70
68924;DHT22;55961;52.156;20.942;2022-08-03T14:30:07;33.90;36.90
68924;DHT22;55961;52.156;20.942;2022-08-03T14:32:33;33.90;36.40
68924;DHT22;55961;52.156;20.942;2022-08-03T14:34:59;33.80;36.20
68924;DHT22;55961;52.156;20.942;2022-08-03T14:37:24;33.80;36.50
68924;DHT22;55961;52.156;20.942;2022-08-03T14:39:50;33.80;36.70
68924;DHT22;55961;52.156;20.942;2022-08-03T14:42:16;33.70;36.90
68924;DHT22;55961;52.156;20.942;2022-08-03T14:44:42;33.80;36.60
68924;DHT22;55961;52.156;20.942;2022-08-03T14:47:08;33.70;36.60
68924;DHT22;55961;52.156;20.942;2022-08-03T14:49:34;33.70;37.10
68924;DHT22;55961;52.156;20.942;2022-08-03T14:52:00;33.60;37.10
68924;DHT22;55961;52.156;20.942;2022-08-03T14:54:26;33.60;37.30
68924;DHT22;55961;52.156;20.942;2022-08-03T14:56:55;33.50;37.20
68924;DHT22;55961;52.156;20.942;2022-08-03T14:59:21;33.40;37.20
68924;DHT22;55961;52.156;20.942;2022-08-03T15:01:46;33.40;37.50
68924;DHT22;55961;52.156;20.942;2022-08-03T15:04:12;33.30;37.40
68924;DHT22;55961;52.156;20.942;2022-08-03T15:06:38;33.30;37.60
68924;DHT22;55961;52.156;20.942;2022-08-03T15:09:04;33.30;37.70
68924;DHT22;55961;52.156;20.942;2022-08-03T15:11:30;33.40;37.30
68924;DHT22;55961;52.156;20.942;2022-08-03T15:13:56;33.40;37.10
68924;DHT22;55961;52.156;20.942;2022-08-03T15:16:22;33.50;37.10
68924;DHT22;55961;52.156;20.942;2022-08-03T15:18:47;33.50;37.00
68924;DHT22;55961;52.156;20.942;2022-08-03T15:21:13;33.60;37.00
68924;DHT22;55961;52.156;20.942;2022-08-03T15:23:39;33.60;36.80
68924;DHT22;55961;52.156;20.942;2022-08-03T15:26:05;33.60;37.20
68924;DHT22;55961;52.156;20.942;2022-08-03T15:28:31;33.60;37.30
68924;DHT22;55961;52.156;20.942;2022-08-03T15:30:57;33.60;36.90
68924;DHT22;55961;52.156;20.942;2022-08-03T15:33:23;33.60;36.80
68924;DHT22;55961;52.156;20.942;2022-08-03T15:35:49;33.60;37.20
68924;DHT22;55961;52.156;20.942;2022-08-03T15:38:15;33.60;37.30
68924;DHT22;55961;52.156;20.942;2022-08-03T15:40:41;33.60;37.90
68924;DHT22;55961;52.156;20.942;2022-08-03T15:43:07;33.60;37.20
68924;DHT22;55961;52.156;20.942;2022-08-03T15:45:33;33.60;37.00
68924;DHT22;55961;52.156;20.942;2022-08-03T15:47:59;33.60;37.40
68924;DHT22;55961;52.156;20.942;2022-08-03T15:50:24;33.70;37.20
68924;DHT22;55961;52.156;20.942;2022-08-03T15:52:50;33.70;37.30
68924;DHT22;55961;52.156;20.942;2022-08-03T15:55:16;33.70;36.90
68924;DHT22;55961;52.156;20.942;2022-08-03T15:57:45;33.70;37.00
68924;DHT22;55961;52.156;20.942;2022-08-03T16:00:12;33.70;36.40
68924;DHT22;55961;52.156;20.942;2022-08-03T16:02:38;33.50;36.20
68924;DHT22;55961;52.156;20.942;2022-08-03T16:05:04;33.50;36.80
68924;DHT22;55961;52.156;20.942;2022-08-03T16:07:30;33.50;37.00
68924;DHT22;55961;52.156;20.942;2022-08-03T16:10:09;33.40;37.00
68924;DHT22;55961;52.156;20.942;2022-08-03T16:12:35;33.30;37.20